Sewanee, Tennessee
Current Conditions -  °F | °C
As of 4:15 PM on Sunday 25 Jan 2015 (Local Time) from KBGF Reporting Station
Overcast Overcast  
Wind Chill: 50°   Ceiling: 4500
Heat Index: 50°   Visibility: 6mi
Dew Point: 39°   Wind: 8mph
Humidity: 66%   Direction: 230°SW
Pressure: 29.7"   Gusts: NA
Location:  35.19°N, 85.92°W
Report Text: KBGF 252215Z AUTO 23007KT 6SM SCT023 SCT035 OVC045 10/04 A2970 RMK
Loading
Personal Weather Stations






























Interactive Weather Map New forecast layout! Learn more

10-Day Weather Forecast

Advertisements
Track Severe Weather on mobile